sensor_id;sensor_type;location;lat;lon;timestamp;pressure;altitude;pressure_sealevel;temperature;humidity
11672;BME280;5892;43.412;24.612;2022-12-10T00:01:23;99304.16;;;6.21;100.00
11672;BME280;5892;43.412;24.612;2022-12-10T00:03:51;99298.00;;;6.15;100.00
11672;BME280;5892;43.412;24.612;2022-12-10T00:06:22;99278.28;;;6.10;100.00
11672;BME280;5892;43.412;24.612;2022-12-10T00:08:50;99288.25;;;6.14;100.00
11672;BME280;5892;43.412;24.612;2022-12-10T00:11:19;99303.72;;;6.27;100.00
11672;BME280;5892;43.412;24.612;2022-12-10T00:13:48;99297.78;;;6.25;100.00
11672;BME280;5892;43.412;24.612;2022-12-10T00:16:18;99294.66;;;6.18;100.00
11672;BME280;5892;43.412;24.612;2022-12-10T00:18:46;99315.03;;;6.21;100.00
11672;BME280;5892;43.412;24.612;2022-12-10T00:21:15;99309.28;;;6.22;100.00
11672;BME280;5892;43.412;24.612;2022-12-10T00:23:45;99302.72;;;6.23;100.00
11672;BME280;5892;43.412;24.612;2022-12-10T00:26:13;99226.69;;;5.69;100.00
11672;BME280;5892;43.412;24.612;2022-12-10T00:37:59;99303.09;;;6.30;100.00
11672;BME280;5892;43.412;24.612;2022-12-10T00:40:28;99294.25;;;6.25;100.00
11672;BME280;5892;43.412;24.612;2022-12-10T00:42:55;99284.00;;;6.22;100.00
11672;BME280;5892;43.412;24.612;2022-12-10T00:45:22;99291.13;;;6.31;100.00
11672;BME280;5892;43.412;24.612;2022-12-10T00:47:49;99297.03;;;6.33;100.00
11672;BME280;5892;43.412;24.612;2022-12-10T00:50:21;99296.88;;;6.30;100.00
11672;BME280;5892;43.412;24.612;2022-12-10T00:52:48;99277.25;;;6.19;100.00
11672;BME280;5892;43.412;24.612;2022-12-10T00:55:16;99290.94;;;6.28;100.00
11672;BME280;5892;43.412;24.612;2022-12-10T00:57:44;99296.56;;;6.31;100.00
11672;BME280;5892;43.412;24.612;2022-12-10T01:00:12;99293.84;;;6.31;100.00
11672;BME280;5892;43.412;24.612;2022-12-10T01:02:39;99280.72;;;6.33;100.00
11672;BME280;5892;43.412;24.612;2022-12-10T01:05:07;99212.97;;;5.87;100.00
11672;BME280;5892;43.412;24.612;2022-12-10T01:07:34;99279.72;;;6.29;100.00
11672;BME280;5892;43.412;24.612;2022-12-10T01:10:02;99279.72;;;6.29;100.00
11672;BME280;5892;43.412;24.612;2022-12-10T01:12:29;99283.31;;;6.38;100.00
11672;BME280;5892;43.412;24.612;2022-12-10T01:14:59;99287.78;;;6.34;100.00
11672;BME280;5892;43.412;24.612;2022-12-10T01:17:27;99291.47;;;6.38;100.00
11672;BME280;5892;43.412;24.612;2022-12-10T01:19:55;99293.22;;;6.34;100.00
11672;BME280;5892;43.412;24.612;2022-12-10T01:22:21;99282.34;;;6.34;100.00
11672;BME280;5892;43.412;24.612;2022-12-10T01:24:50;99276.44;;;6.19;100.00
11672;BME280;5892;43.412;24.612;2022-12-10T01:27:18;99285.84;;;6.35;100.00
11672;BME280;5892;43.412;24.612;2022-12-10T01:29:47;99283.94;;;6.35;100.00
11672;BME280;5892;43.412;24.612;2022-12-10T01:32:16;99233.91;;;5.87;100.00
11672;BME280;5892;43.412;24.612;2022-12-10T01:34:49;99269.09;;;6.19;100.00
11672;BME280;5892;43.412;24.612;2022-12-10T01:37:17;99273.31;;;6.25;100.00
11672;BME280;5892;43.412;24.612;2022-12-10T01:39:45;99269.78;;;6.25;100.00
11672;BME280;5892;43.412;24.612;2022-12-10T01:42:15;99263.47;;;6.16;100.00
11672;BME280;5892;43.412;24.612;2022-12-10T01:45:05;99267.22;;;6.28;100.00
11672;BME280;5892;43.412;24.612;2022-12-10T01:47:35;99258.19;;;6.19;100.00
11672;BME280;5892;43.412;24.612;2022-12-10T01:50:04;99258.19;;;6.19;100.00
11672;BME280;5892;43.412;24.612;2022-12-10T01:52:31;99267.13;;;6.33;100.00
11672;BME280;5892;43.412;24.612;2022-12-10T01:54:58;99254.94;;;6.31;100.00
11672;BME280;5892;43.412;24.612;2022-12-10T01:57:27;99260.28;;;6.36;100.00
11672;BME280;5892;43.412;24.612;2022-12-10T01:59:57;99234.81;;;5.96;100.00
11672;BME280;5892;43.412;24.612;2022-12-10T02:02:38;99266.38;;;6.19;100.00
11672;BME280;5892;43.412;24.612;2022-12-10T02:05:25;99265.03;;;6.30;100.00
11672;BME280;5892;43.412;24.612;2022-12-10T02:08:03;99260.31;;;6.22;100.00
11672;BME280;5892;43.412;24.612;2022-12-10T02:10:43;99251.72;;;6.29;100.00
11672;BME280;5892;43.412;24.612;2022-12-10T02:13:18;99239.56;;;6.26;100.00
11672;BME280;5892;43.412;24.612;2022-12-10T02:15:50;99223.25;;;6.13;100.00
11672;BME280;5892;43.412;24.612;2022-12-10T02:18:24;99222.00;;;6.32;100.00
11672;BME280;5892;43.412;24.612;2022-12-10T02:20:55;99235.47;;;6.37;100.00
11672;BME280;5892;43.412;24.612;2022-12-10T02:23:25;99224.47;;;6.43;100.00
11672;BME280;5892;43.412;24.612;2022-12-10T02:25:59;99210.78;;;6.34;100.00
11672;BME280;5892;43.412;24.612;2022-12-10T02:28:36;99216.56;;;6.32;100.00
11672;BME280;5892;43.412;24.612;2022-12-10T02:31:06;99231.03;;;6.42;100.00
11672;BME280;5892;43.412;24.612;2022-12-10T02:33:39;99221.25;;;6.41;100.00
11672;BME280;5892;43.412;24.612;2022-12-10T02:36:09;99229.53;;;6.35;100.00
11672;BME280;5892;43.412;24.612;2022-12-10T02:38:39;99228.41;;;6.36;100.00
11672;BME280;5892;43.412;24.612;2022-12-10T02:41:13;99226.69;;;6.41;100.00
11672;BME280;5892;43.412;24.612;2022-12-10T02:43:43;99100.84;;;5.68;100.00
11672;BME280;5892;43.412;24.612;2022-12-10T02:46:15;99215.81;;;6.41;100.00
11672;BME280;5892;43.412;24.612;2022-12-10T02:48:45;99210.88;;;6.43;100.00
11672;BME280;5892;43.412;24.612;2022-12-10T02:51:13;99202.84;;;6.37;100.00
11672;BME280;5892;43.412;24.612;2022-12-10T02:53:41;99213.25;;;6.44;100.00
11672;BME280;5892;43.412;24.612;2022-12-10T02:56:14;99213.59;;;6.43;100.00
11672;BME280;5892;43.412;24.612;2022-12-10T02:58:54;99215.19;;;6.44;100.00
11672;BME280;5892;43.412;24.612;2022-12-10T03:01:34;99210.53;;;6.44;100.00
11672;BME280;5892;43.412;24.612;2022-12-10T03:04:07;99195.03;;;6.45;100.00
11672;BME280;5892;43.412;24.612;2022-12-10T03:06:40;99197.88;;;6.39;100.00
11672;BME280;5892;43.412;24.612;2022-12-10T03:09:15;99206.97;;;6.35;100.00
11672;BME280;5892;43.412;24.612;2022-12-10T03:11:45;99207.94;;;6.39;100.00
11672;BME280;5892;43.412;24.612;2022-12-10T03:14:18;99214.19;;;6.39;100.00
11672;BME280;5892;43.412;24.612;2022-12-10T03:16:50;99200.47;;;6.45;100.00
11672;BME280;5892;43.412;24.612;2022-12-10T03:19:24;99219.16;;;6.37;100.00
11672;BME280;5892;43.412;24.612;2022-12-10T03:21:54;99219.03;;;6.43;100.00
11672;BME280;5892;43.412;24.612;2022-12-10T03:24:25;99186.81;;;6.36;100.00
11672;BME280;5892;43.412;24.612;2022-12-10T03:26:58;99206.78;;;6.31;100.00
11672;BME280;5892;43.412;24.612;2022-12-10T03:30:14;99199.19;;;6.42;100.00
11672;BME280;5892;43.412;24.612;2022-12-10T03:32:43;99204.75;;;6.37;100.00
11672;BME280;5892;43.412;24.612;2022-12-10T03:35:13;99150.50;;;6.18;100.00
11672;BME280;5892;43.412;24.612;2022-12-10T03:37:41;99204.31;;;6.44;100.00
11672;BME280;5892;43.412;24.612;2022-12-10T03:40:11;99198.75;;;6.49;100.00
11672;BME280;5892;43.412;24.612;2022-12-10T03:42:41;99198.19;;;6.38;100.00
11672;BME280;5892;43.412;24.612;2022-12-10T03:45:08;99163.38;;;6.26;100.00
11672;BME280;5892;43.412;24.612;2022-12-10T03:47:36;99180.19;;;6.28;100.00
11672;BME280;5892;43.412;24.612;2022-12-10T03:50:07;99173.63;;;6.29;100.00
11672;BME280;5892;43.412;24.612;2022-12-10T03:52:34;99174.47;;;6.38;100.00
11672;BME280;5892;43.412;24.612;2022-12-10T03:55:02;99168.56;;;6.36;100.00
11672;BME280;5892;43.412;24.612;2022-12-10T03:57:32;99174.13;;;6.31;100.00
11672;BME280;5892;43.412;24.612;2022-12-10T03:59:59;99175.28;;;6.39;100.00
11672;BME280;5892;43.412;24.612;2022-12-10T04:02:26;99164.66;;;6.29;100.00
11672;BME280;5892;43.412;24.612;2022-12-10T04:04:59;99059.03;;;5.55;100.00
11672;BME280;5892;43.412;24.612;2022-12-10T04:07:27;99162.44;;;6.31;100.00
11672;BME280;5892;43.412;24.612;2022-12-10T04:09:54;99158.28;;;6.33;100.00
11672;BME280;5892;43.412;24.612;2022-12-10T04:12:21;99163.25;;;6.31;100.00
11672;BME280;5892;43.412;24.612;2022-12-10T04:14:49;99143.63;;;6.12;100.00
11672;BME280;5892;43.412;24.612;2022-12-10T04:17:33;99155.53;;;6.25;100.00
11672;BME280;5892;43.412;24.612;2022-12-10T04:20:00;99126.28;;;6.08;100.00
11672;BME280;5892;43.412;24.612;2022-12-10T04:22:29;99173.75;;;6.47;100.00
11672;BME280;5892;43.412;24.612;2022-12-10T04:25:13;99169.16;;;6.56;100.00
11672;BME280;5892;43.412;24.612;2022-12-10T04:27:58;99180.34;;;6.54;100.00
11672;BME280;5892;43.412;24.612;2022-12-10T04:30:25;99172.00;;;6.51;100.00
11672;BME280;5892;43.412;24.612;2022-12-10T04:32:52;99165.88;;;6.67;100.00
11672;BME280;5892;43.412;24.612;2022-12-10T04:35:19;99162.97;;;6.64;100.00
11672;BME280;5892;43.412;24.612;2022-12-10T04:37:48;99159.63;;;6.67;100.00
11672;BME280;5892;43.412;24.612;2022-12-10T04:40:15;99122.69;;;6.44;100.00
11672;BME280;5892;43.412;24.612;2022-12-10T04:42:42;99160.13;;;6.69;100.00
11672;BME280;5892;43.412;24.612;2022-12-10T04:45:12;99163.44;;;6.66;100.00
11672;BME280;5892;43.412;24.612;2022-12-10T04:47:39;99095.38;;;6.04;100.00
11672;BME280;5892;43.412;24.612;2022-12-10T04:50:07;99156.41;;;6.65;100.00
11672;BME280;5892;43.412;24.612;2022-12-10T04:52:34;99151.81;;;6.74;100.00
11672;BME280;5892;43.412;24.612;2022-12-10T04:55:25;99153.16;;;6.85;100.00
11672;BME280;5892;43.412;24.612;2022-12-10T04:57:51;99163.72;;;6.87;100.00
11672;BME280;5892;43.412;24.612;2022-12-10T05:00:19;99157.13;;;6.79;100.00
11672;BME280;5892;43.412;24.612;2022-12-10T05:02:58;99164.63;;;6.73;100.00
11672;BME280;5892;43.412;24.612;2022-12-10T05:05:45;99157.25;;;6.74;100.00
11672;BME280;5892;43.412;24.612;2022-12-10T05:08:12;99156.94;;;6.75;100.00
11672;BME280;5892;43.412;24.612;2022-12-10T05:10:40;99159.22;;;6.82;100.00
11672;BME280;5892;43.412;24.612;2022-12-10T05:13:08;99157.97;;;6.88;100.00
11672;BME280;5892;43.412;24.612;2022-12-10T05:15:37;99160.66;;;6.79;100.00
11672;BME280;5892;43.412;24.612;2022-12-10T05:18:05;99150.81;;;6.70;100.00
11672;BME280;5892;43.412;24.612;2022-12-10T05:20:33;99146.50;;;6.69;100.00
11672;BME280;5892;43.412;24.612;2022-12-10T05:23:00;99168.22;;;6.91;100.00
11672;BME280;5892;43.412;24.612;2022-12-10T05:25:47;99157.97;;;6.97;100.00
11672;BME280;5892;43.412;24.612;2022-12-10T05:28:19;99154.78;;;6.95;100.00
11672;BME280;5892;43.412;24.612;2022-12-10T05:30:47;99138.09;;;6.88;100.00
11672;BME280;5892;43.412;24.612;2022-12-10T05:33:16;99153.97;;;6.94;100.00
11672;BME280;5892;43.412;24.612;2022-12-10T05:35:52;99153.03;;;6.99;100.00
11672;BME280;5892;43.412;24.612;2022-12-10T05:38:20;99147.56;;;6.90;100.00
11672;BME280;5892;43.412;24.612;2022-12-10T05:40:49;99120.44;;;6.76;100.00
11672;BME280;5892;43.412;24.612;2022-12-10T05:43:18;99166.50;;;7.04;100.00
11672;BME280;5892;43.412;24.612;2022-12-10T05:45:45;99166.13;;;6.88;100.00
11672;BME280;5892;43.412;24.612;2022-12-10T05:48:14;99169.97;;;6.87;100.00
11672;BME280;5892;43.412;24.612;2022-12-10T05:50:41;99164.22;;;6.97;100.00
11672;BME280;5892;43.412;24.612;2022-12-10T05:53:10;99162.38;;;7.06;100.00
11672;BME280;5892;43.412;24.612;2022-12-10T05:55:39;99157.88;;;7.10;100.00
11672;BME280;5892;43.412;24.612;2022-12-10T05:58:09;99135.88;;;6.90;100.00
11672;BME280;5892;43.412;24.612;2022-12-10T06:00:40;99163.75;;;6.95;100.00
11672;BME280;5892;43.412;24.612;2022-12-10T06:03:09;99158.50;;;7.07;100.00
11672;BME280;5892;43.412;24.612;2022-12-10T06:05:36;99170.19;;;7.08;100.00
11672;BME280;5892;43.412;24.612;2022-12-10T06:08:04;99170.72;;;7.18;100.00
11672;BME280;5892;43.412;24.612;2022-12-10T06:10:34;99168.81;;;7.28;100.00
11672;BME280;5892;43.412;24.612;2022-12-10T06:13:03;99151.84;;;7.31;100.00
11672;BME280;5892;43.412;24.612;2022-12-10T06:15:32;99159.25;;;7.39;100.00
11672;BME280;5892;43.412;24.612;2022-12-10T06:18:00;99146.56;;;7.26;100.00
11672;BME280;5892;43.412;24.612;2022-12-10T06:20:27;99152.88;;;7.52;100.00
11672;BME280;5892;43.412;24.612;2022-12-10T06:22:54;99155.44;;;7.57;100.00
11672;BME280;5892;43.412;24.612;2022-12-10T06:25:22;99152.25;;;7.72;100.00
11672;BME280;5892;43.412;24.612;2022-12-10T06:27:49;99149.53;;;7.72;100.00
11672;BME280;5892;43.412;24.612;2022-12-10T06:30:17;99147.91;;;7.71;100.00
11672;BME280;5892;43.412;24.612;2022-12-10T06:32:48;99144.72;;;7.69;100.00
11672;BME280;5892;43.412;24.612;2022-12-10T06:35:15;99137.81;;;7.63;100.00
11672;BME280;5892;43.412;24.612;2022-12-10T06:37:43;99140.22;;;7.82;100.00
11672;BME280;5892;43.412;24.612;2022-12-10T06:40:11;99110.53;;;7.80;100.00
11672;BME280;5892;43.412;24.612;2022-12-10T06:42:38;99140.56;;;7.89;100.00
11672;BME280;5892;43.412;24.612;2022-12-10T06:45:06;99122.41;;;7.93;100.00
11672;BME280;5892;43.412;24.612;2022-12-10T06:47:33;99124.16;;;8.06;100.00
11672;BME280;5892;43.412;24.612;2022-12-10T06:50:02;99143.25;;;8.15;100.00
11672;BME280;5892;43.412;24.612;2022-12-10T06:52:29;99060.66;;;7.80;100.00
11672;BME280;5892;43.412;24.612;2022-12-10T06:54:56;99109.25;;;8.21;100.00
11672;BME280;5892;43.412;24.612;2022-12-10T06:57:24;99127.50;;;8.29;100.00
11672;BME280;5892;43.412;24.612;2022-12-10T06:59:51;99123.50;;;8.35;100.00
11672;BME280;5892;43.412;24.612;2022-12-10T07:02:19;99115.81;;;8.37;100.00
11672;BME280;5892;43.412;24.612;2022-12-10T07:04:46;99109.84;;;8.43;100.00
11672;BME280;5892;43.412;24.612;2022-12-10T07:07:15;99127.66;;;8.58;100.00
11672;BME280;5892;43.412;24.612;2022-12-10T07:09:42;99128.59;;;8.62;100.00
11672;BME280;5892;43.412;24.612;2022-12-10T07:12:09;99128.25;;;8.72;100.00
11672;BME280;5892;43.412;24.612;2022-12-10T07:14:38;99124.03;;;8.75;100.00
11672;BME280;5892;43.412;24.612;2022-12-10T07:17:05;99140.22;;;8.88;100.00
11672;BME280;5892;43.412;24.612;2022-12-10T07:19:32;99139.44;;;8.79;100.00
11672;BME280;5892;43.412;24.612;2022-12-10T07:21:59;99136.72;;;8.79;100.00
11672;BME280;5892;43.412;24.612;2022-12-10T07:24:27;99141.56;;;8.74;100.00
11672;BME280;5892;43.412;24.612;2022-12-10T07:26:54;99156.97;;;8.78;100.00
11672;BME280;5892;43.412;24.612;2022-12-10T07:29:22;99082.88;;;8.42;100.00
11672;BME280;5892;43.412;24.612;2022-12-10T07:31:52;99139.69;;;8.95;100.00
11672;BME280;5892;43.412;24.612;2022-12-10T07:34:22;99135.72;;;8.92;100.00
11672;BME280;5892;43.412;24.612;2022-12-10T07:36:50;99138.38;;;9.01;100.00
11672;BME280;5892;43.412;24.612;2022-12-10T07:39:17;99100.38;;;8.87;100.00
11672;BME280;5892;43.412;24.612;2022-12-10T07:41:47;99130.72;;;8.95;100.00
11672;BME280;5892;43.412;24.612;2022-12-10T07:44:18;99119.19;;;8.80;100.00
11672;BME280;5892;43.412;24.612;2022-12-10T07:46:46;99129.03;;;8.73;100.00
11672;BME280;5892;43.412;24.612;2022-12-10T07:49:14;99130.78;;;8.77;100.00
11672;BME280;5892;43.412;24.612;2022-12-10T07:51:43;99120.97;;;8.76;100.00
11672;BME280;5892;43.412;24.612;2022-12-10T07:54:15;99074.97;;;8.49;100.00
11672;BME280;5892;43.412;24.612;2022-12-10T07:56:43;99117.72;;;8.91;100.00
11672;BME280;5892;43.412;24.612;2022-12-10T07:59:12;99077.59;;;8.83;100.00
11672;BME280;5892;43.412;24.612;2022-12-10T08:01:40;99119.81;;;8.95;100.00
11672;BME280;5892;43.412;24.612;2022-12-10T08:04:07;99123.22;;;8.83;100.00
11672;BME280;5892;43.412;24.612;2022-12-10T08:06:35;99112.47;;;8.69;100.00
11672;BME280;5892;43.412;24.612;2022-12-10T08:09:02;99122.81;;;9.02;100.00
11672;BME280;5892;43.412;24.612;2022-12-10T08:11:29;99050.16;;;8.71;100.00
11672;BME280;5892;43.412;24.612;2022-12-10T08:13:58;99120.38;;;9.09;100.00
11672;BME280;5892;43.412;24.612;2022-12-10T08:16:28;99116.88;;;9.00;100.00
11672;BME280;5892;43.412;24.612;2022-12-10T08:19:00;99107.72;;;8.96;100.00
11672;BME280;5892;43.412;24.612;2022-12-10T08:21:29;99092.84;;;8.84;100.00
11672;BME280;5892;43.412;24.612;2022-12-10T08:23:57;99103.34;;;9.03;100.00
11672;BME280;5892;43.412;24.612;2022-12-10T08:26:28;99100.38;;;9.17;100.00
11672;BME280;5892;43.412;24.612;2022-12-10T08:28:56;99105.44;;;9.35;100.00
11672;BME280;5892;43.412;24.612;2022-12-10T08:31:26;99058.66;;;9.28;100.00
11672;BME280;5892;43.412;24.612;2022-12-10T08:33:54;99088.69;;;9.58;100.00
11672;BME280;5892;43.412;24.612;2022-12-10T08:36:22;99095.84;;;9.71;100.00
11672;BME280;5892;43.412;24.612;2022-12-10T08:38:53;99085.38;;;9.73;100.00
11672;BME280;5892;43.412;24.612;2022-12-10T08:41:22;99083.97;;;9.88;100.00
11672;BME280;5892;43.412;24.612;2022-12-10T08:43:52;99081.13;;;9.96;100.00
11672;BME280;5892;43.412;24.612;2022-12-10T08:46:20;99077.16;;;9.94;100.00
11672;BME280;5892;43.412;24.612;2022-12-10T08:48:50;99079.09;;;10.05;100.00
11672;BME280;5892;43.412;24.612;2022-12-10T08:51:18;99074.63;;;10.01;100.00
11672;BME280;5892;43.412;24.612;2022-12-10T08:53:45;99067.63;;;10.12;100.00
11672;BME280;5892;43.412;24.612;2022-12-10T08:56:13;99066.25;;;10.39;100.00
11672;BME280;5892;43.412;24.612;2022-12-10T08:58:41;99062.25;;;10.36;100.00
11672;BME280;5892;43.412;24.612;2022-12-10T09:01:09;99060.91;;;10.54;100.00
11672;BME280;5892;43.412;24.612;2022-12-10T09:03:39;99050.66;;;10.51;100.00
11672;BME280;5892;43.412;24.612;2022-12-10T09:06:09;99004.28;;;10.34;100.00
11672;BME280;5892;43.412;24.612;2022-12-10T09:08:37;99046.09;;;10.68;100.00
11672;BME280;5892;43.412;24.612;2022-12-10T09:11:06;99044.50;;;10.67;100.00
11672;BME280;5892;43.412;24.612;2022-12-10T09:13:36;99005.66;;;10.52;100.00
11672;BME280;5892;43.412;24.612;2022-12-10T09:16:04;99019.94;;;10.58;100.00
11672;BME280;5892;43.412;24.612;2022-12-10T09:18:31;99030.78;;;10.79;100.00
11672;BME280;5892;43.412;24.612;2022-12-10T09:20:59;99020.97;;;10.78;100.00
11672;BME280;5892;43.412;24.612;2022-12-10T09:23:31;99013.09;;;10.76;100.00
11672;BME280;5892;43.412;24.612;2022-12-10T09:25:58;99012.19;;;10.72;100.00
11672;BME280;5892;43.412;24.612;2022-12-10T09:28:28;99001.78;;;10.90;100.00
11672;BME280;5892;43.412;24.612;2022-12-10T09:30:55;98994.25;;;10.99;100.00
11672;BME280;5892;43.412;24.612;2022-12-10T09:33:28;98995.81;;;11.12;100.00
11672;BME280;5892;43.412;24.612;2022-12-10T09:35:55;98991.59;;;11.15;100.00
11672;BME280;5892;43.412;24.612;2022-12-10T09:38:24;99003.88;;;11.33;100.00
11672;BME280;5892;43.412;24.612;2022-12-10T09:41:00;99002.72;;;11.34;100.00
11672;BME280;5892;43.412;24.612;2022-12-10T09:43:39;98997.31;;;11.50;100.00
11672;BME280;5892;43.412;24.612;2022-12-10T09:46:18;98989.09;;;11.50;100.00
11672;BME280;5892;43.412;24.612;2022-12-10T09:48:57;98985.38;;;11.58;100.00
11672;BME280;5892;43.412;24.612;2022-12-10T09:51:29;98957.09;;;11.41;100.00
11672;BME280;5892;43.412;24.612;2022-12-10T09:53:57;98989.00;;;11.74;100.00
11672;BME280;5892;43.412;24.612;2022-12-10T09:56:32;98969.28;;;11.84;100.00
11672;BME280;5892;43.412;24.612;2022-12-10T09:59:03;98973.31;;;12.02;100.00
11672;BME280;5892;43.412;24.612;2022-12-10T10:01:34;98964.75;;;12.19;100.00
11672;BME280;5892;43.412;24.612;2022-12-10T10:04:04;98961.38;;;12.42;100.00
11672;BME280;5892;43.412;24.612;2022-12-10T10:06:33;98893.50;;;12.11;100.00
11672;BME280;5892;43.412;24.612;2022-12-10T10:09:06;98929.47;;;12.88;100.00
11672;BME280;5892;43.412;24.612;2022-12-10T10:11:38;98931.22;;;13.11;100.00
11672;BME280;5892;43.412;24.612;2022-12-10T10:14:10;98942.22;;;13.31;100.00
11672;BME280;5892;43.412;24.612;2022-12-10T10:16:44;98930.94;;;13.55;100.00
11672;BME280;5892;43.412;24.612;2022-12-10T10:19:17;98938.41;;;13.77;100.00
11672;BME280;5892;43.412;24.612;2022-12-10T10:21:46;98942.63;;;13.71;100.00
11672;BME280;5892;43.412;24.612;2022-12-10T10:24:16;98927.66;;;13.69;100.00
11672;BME280;5892;43.412;24.612;2022-12-10T10:26:46;98926.84;;;13.68;100.00
11672;BME280;5892;43.412;24.612;2022-12-10T10:29:17;98930.56;;;13.37;100.00
11672;BME280;5892;43.412;24.612;2022-12-10T10:31:46;98927.88;;;13.22;100.00
11672;BME280;5892;43.412;24.612;2022-12-10T10:34:17;98933.97;;;13.11;100.00
11672;BME280;5892;43.412;24.612;2022-12-10T10:36:47;98867.00;;;12.50;100.00
11672;BME280;5892;43.412;24.612;2022-12-10T10:39:28;98931.06;;;12.89;100.00
11672;BME280;5892;43.412;24.612;2022-12-10T10:41:58;98917.00;;;12.74;100.00
11672;BME280;5892;43.412;24.612;2022-12-10T10:44:28;98906.97;;;12.82;100.00
11672;BME280;5892;43.412;24.612;2022-12-10T10:47:00;98901.03;;;12.80;100.00
11672;BME280;5892;43.412;24.612;2022-12-10T10:49:30;98835.41;;;12.59;100.00
11672;BME280;5892;43.412;24.612;2022-12-10T10:52:06;98876.03;;;13.04;100.00
11672;BME280;5892;43.412;24.612;2022-12-10T10:54:44;98870.78;;;13.15;100.00
11672;BME280;5892;43.412;24.612;2022-12-10T10:57:17;98866.34;;;13.30;100.00
11672;BME280;5892;43.412;24.612;2022-12-10T11:00:17;98841.47;;;13.23;100.00
11672;BME280;5892;43.412;24.612;2022-12-10T11:02:45;98865.19;;;13.50;100.00
11672;BME280;5892;43.412;24.612;2022-12-10T11:05:17;98857.22;;;13.45;100.00
11672;BME280;5892;43.412;24.612;2022-12-10T11:07:47;98860.53;;;13.54;100.00
11672;BME280;5892;43.412;24.612;2022-12-10T11:10:19;98841.31;;;13.57;100.00
11672;BME280;5892;43.412;24.612;2022-12-10T11:12:56;98849.84;;;13.72;100.00
11672;BME280;5892;43.412;24.612;2022-12-10T11:15:33;98854.38;;;13.83;100.00
11672;BME280;5892;43.412;24.612;2022-12-10T11:18:01;98833.50;;;13.82;100.00
11672;BME280;5892;43.412;24.612;2022-12-10T11:20:31;98820.66;;;13.67;100.00
11672;BME280;5892;43.412;24.612;2022-12-10T11:23:01;98817.91;;;13.67;100.00
11672;BME280;5892;43.412;24.612;2022-12-10T11:25:41;98846.47;;;14.05;100.00
11672;BME280;5892;43.412;24.612;2022-12-10T11:28:39;98840.28;;;14.11;100.00
11672;BME280;5892;43.412;24.612;2022-12-10T11:31:22;98840.41;;;14.18;100.00
11672;BME280;5892;43.412;24.612;2022-12-10T11:33:59;98842.69;;;14.13;100.00
11672;BME280;5892;43.412;24.612;2022-12-10T11:36:34;98838.81;;;14.17;100.00
11672;BME280;5892;43.412;24.612;2022-12-10T11:39:14;98812.38;;;14.13;100.00
11672;BME280;5892;43.412;24.612;2022-12-10T11:41:48;98837.06;;;14.32;100.00
11672;BME280;5892;43.412;24.612;2022-12-10T11:44:27;98820.81;;;14.23;100.00
11672;BME280;5892;43.412;24.612;2022-12-10T11:47:26;98840.97;;;14.31;100.00
11672;BME280;5892;43.412;24.612;2022-12-10T11:50:05;98832.38;;;14.36;100.00
11672;BME280;5892;43.412;24.612;2022-12-10T11:52:52;98823.00;;;14.37;100.00
11672;BME280;5892;43.412;24.612;2022-12-10T11:55:27;98827.19;;;14.31;100.00
11672;BME280;5892;43.412;24.612;2022-12-10T11:58:11;98815.38;;;14.30;100.00
11672;BME280;5892;43.412;24.612;2022-12-10T12:00:53;98794.03;;;14.24;100.00
11672;BME280;5892;43.412;24.612;2022-12-10T12:06:27;98783.41;;;14.22;100.00
11672;BME280;5892;43.412;24.612;2022-12-10T12:09:06;98808.34;;;14.33;100.00
11672;BME280;5892;43.412;24.612;2022-12-10T12:11:52;98806.09;;;14.38;100.00
11672;BME280;5892;43.412;24.612;2022-12-10T12:14:24;98791.59;;;14.45;100.00
11672;BME280;5892;43.412;24.612;2022-12-10T12:17:02;98819.63;;;14.51;100.00
11672;BME280;5892;43.412;24.612;2022-12-10T12:19:36;98785.69;;;14.43;100.00
11672;BME280;5892;43.412;24.612;2022-12-10T12:22:12;98817.78;;;14.58;100.00
11672;BME280;5892;43.412;24.612;2022-12-10T12:24:41;98804.72;;;14.55;100.00
11672;BME280;5892;43.412;24.612;2022-12-10T12:27:18;98825.41;;;14.68;100.00
11672;BME280;5892;43.412;24.612;2022-12-10T12:30:02;98827.72;;;14.66;100.00
11672;BME280;5892;43.412;24.612;2022-12-10T12:32:43;98818.94;;;14.57;100.00
11672;BME280;5892;43.412;24.612;2022-12-10T12:35:16;98832.03;;;14.64;100.00
11672;BME280;5892;43.412;24.612;2022-12-10T12:37:48;98829.19;;;14.57;100.00
11672;BME280;5892;43.412;24.612;2022-12-10T12:40:25;98828.38;;;14.56;100.00
11672;BME280;5892;43.412;24.612;2022-12-10T12:42:58;98818.91;;;14.54;100.00
11672;BME280;5892;43.412;24.612;2022-12-10T12:45:34;98778.44;;;14.35;100.00
11672;BME280;5892;43.412;24.612;2022-12-10T12:48:14;98815.56;;;14.41;100.00
11672;BME280;5892;43.412;24.612;2022-12-10T12:50:46;98777.59;;;14.31;100.00
11672;BME280;5892;43.412;24.612;2022-12-10T12:53:15;98797.22;;;14.52;100.00
11672;BME280;5892;43.412;24.612;2022-12-10T12:55:50;98791.72;;;14.52;100.00
11672;BME280;5892;43.412;24.612;2022-12-10T12:58:32;98787.44;;;14.55;100.00
11672;BME280;5892;43.412;24.612;2022-12-10T13:01:11;98772.94;;;14.61;100.00
11672;BME280;5892;43.412;24.612;2022-12-10T13:03:44;98770.94;;;14.58;100.00
11672;BME280;5892;43.412;24.612;2022-12-10T13:06:22;98756.72;;;14.56;100.00
11672;BME280;5892;43.412;24.612;2022-12-10T13:08:57;98717.00;;;14.31;100.00
11672;BME280;5892;43.412;24.612;2022-12-10T13:11:42;98733.00;;;14.48;100.00
11672;BME280;5892;43.412;24.612;2022-12-10T13:14:29;98759.13;;;14.61;100.00
11672;BME280;5892;43.412;24.612;2022-12-10T13:17:26;98760.97;;;14.50;100.00
11672;BME280;5892;43.412;24.612;2022-12-10T13:23:31;98747.72;;;14.33;100.00
11672;BME280;5892;43.412;24.612;2022-12-10T13:26:01;98767.19;;;14.17;100.00
11672;BME280;5892;43.412;24.612;2022-12-10T13:28:48;98768.72;;;14.15;100.00
11672;BME280;5892;43.412;24.612;2022-12-10T13:31:32;98770.94;;;14.06;100.00
11672;BME280;5892;43.412;24.612;2022-12-10T13:34:20;98762.09;;;13.93;100.00
11672;BME280;5892;43.412;24.612;2022-12-10T13:37:26;98760.69;;;14.03;100.00